LFMD 181730Z AUTO 00000KT CAVOK 24/18 Q1009 TEMPO VRB15G30KT 3000 TSRA SCT020CB

ElémentsDécodage
LFMD Station météo située sur l'aérodrome de CANNES Mandelieu
181730Z émis le 18 du mois à 17h30 UTC
AUTO Bulletin édité par un automate
00000KT vent nul
CAVOK Ceiling And Visibility OK
- Visibilité de 10 Km ou plus
- Pas de nuage au-dessous de 1500m ou au-dessous de l'altitude minimale du secteur la plus élevée (si>1500m) et absence de CB
- pas de temps présent significatif
24/18 température 24°C, point de rosée 18°C
 soit une humidité relative de 69%
Q1009 la pression au niveau de la mer (QNH) est de 1009 hPa
TEMPO fluctuation temporaire prévue
VRB15G30KT vent de direction variable, moyenne: 15 noeuds, avec rafales à 30 noeuds
3000 visibilité horizontale de 3000 mètres
TSRA pluie d'orage
SCT020CB nuages épars (3/8 à 4/8) à 2000 pieds
 présence de cumulonimbus